Time;durP1;ratioP1;P1;durP2;ratioP2;P2;SDS_P1;SDS_P2;PMS_P1;PMS_P2;Temp;Humidity;BMP_temperature;BMP_pressure;BME280_temperature;BME280_humidity;BME280_pressure;Samples;Min_cycle;Max_cycle;Signal;HPM_P1;HPM_P2
2021/07/08 00:00:10;;;;;;;11.48;6.32;;;;;;;19.00;65.82;101762.50;5053398;28;20067;-52
2021/07/08 00:02:37;;;;;;;11.75;6.15;;;;;;;18.98;65.97;101770.28;5072726;28;20044;-55
2021/07/08 00:05:12;;;;;;;10.75;6.03;;;;;;;18.97;65.91;101773.31;5072393;28;20044;-55
2021/07/08 00:07:39;;;;;;;11.02;6.65;;;;;;;18.97;66.14;101771.38;5051770;28;20068;-53
2021/07/08 00:10:13;;;;;;;10.95;6.43;;;;;;;19.00;65.93;101772.72;5070609;28;20041;-50
2021/07/08 00:12:41;;;;;;;10.73;6.07;;;;;;;19.00;66.08;101773.56;5072833;28;20052;-52
2021/07/08 00:15:11;;;;;;;12.05;6.60;;;;;;;19.04;65.76;101774.56;5072358;28;20044;-51
2021/07/08 00:17:40;;;;;;;9.15;5.95;;;;;;;19.07;65.68;101775.91;5072420;28;20044;-54
2021/07/08 00:20:10;;;;;;;12.63;7.03;;;;;;;19.10;65.68;101773.38;5072393;28;20086;-51
2021/07/08 00:22:38;;;;;;;12.35;5.97;;;;;;;19.11;65.51;101777.75;5072316;28;20067;-55
2021/07/08 00:25:09;;;;;;;9.50;5.80;;;;;;;19.09;65.52;101771.72;5072463;28;20163;-54
2021/07/08 00:27:37;;;;;;;11.48;5.50;;;;;;;19.08;65.48;101772.84;5050824;28;20147;-52
2021/07/08 00:30:06;;;;;;;12.88;5.45;;;;;;;19.08;65.58;101780.31;5069841;28;20047;-52
2021/07/08 00:32:35;;;;;;;12.57;6.13;;;;;;;19.05;65.51;101776.22;5072365;28;20051;-52
2021/07/08 00:35:04;;;;;;;11.75;5.88;;;;;;;19.02;65.77;101778.75;5071984;28;20056;-51
2021/07/08 00:37:31;;;;;;;10.63;6.25;;;;;;;18.94;66.00;101777.50;5072274;28;20049;-51
2021/07/08 00:40:00;;;;;;;11.43;5.65;;;;;;;18.86;66.27;101765.22;5072098;28;20487;-50
2021/07/08 00:42:27;;;;;;;11.13;5.55;;;;;;;18.82;66.41;101774.41;5072357;28;20059;-53
2021/07/08 00:44:55;;;;;;;10.57;6.55;;;;;;;18.78;66.78;101773.34;5071481;28;20407;-50
2021/07/08 00:47:22;;;;;;;10.25;6.38;;;;;;;18.70;66.97;101786.69;5072337;28;20040;-51
2021/07/08 00:49:50;;;;;;;11.70;6.35;;;;;;;18.63;67.12;101780.72;5050548;28;20048;-51
2021/07/08 00:52:18;;;;;;;9.32;5.55;;;;;;;18.61;67.34;101782.94;5071992;28;20032;-50
2021/07/08 00:54:46;;;;;;;13.77;6.20;;;;;;;18.62;67.16;101781.03;5072183;28;20058;-52
2021/07/08 00:57:14;;;;;;;11.60;6.72;;;;;;;18.59;67.34;101784.38;5071850;28;20049;-51
2021/07/08 00:59:46;;;;;;;11.65;6.45;;;;;;;18.55;67.38;101772.31;5071899;28;20056;-50
2021/07/08 01:02:15;;;;;;;12.40;6.10;;;;;;;18.57;67.33;101775.56;5071700;28;20107;-52
2021/07/08 01:04:47;;;;;;;11.48;6.68;;;;;;;18.61;67.15;101777.44;5071969;28;20071;-51
2021/07/08 01:07:16;;;;;;;12.88;6.75;;;;;;;18.61;66.86;101771.91;5071838;28;20052;-51
2021/07/08 01:09:44;;;;;;;12.50;6.55;;;;;;;18.52;67.11;101768.22;5072081;28;20090;-53
2021/07/08 01:12:12;;;;;;;12.82;6.97;;;;;;;18.50;67.15;101771.25;5072175;28;20055;-53
2021/07/08 01:14:39;;;;;;;11.57;6.72;;;;;;;18.51;67.08;101780.34;5033752;28;20052;-51
2021/07/08 01:17:08;;;;;;;9.38;5.97;;;;;;;18.48;66.96;101786.47;5070030;28;20056;-50
2021/07/08 01:19:36;;;;;;;12.32;7.03;;;;;;;18.43;67.37;101792.06;5071498;28;20044;-54
2021/07/08 01:22:05;;;;;;;12.05;6.70;;;;;;;18.39;67.34;101789.06;5072143;28;20063;-51
2021/07/08 01:24:33;;;;;;;10.93;6.30;;;;;;;18.36;67.55;101794.38;5071638;28;20044;-49
2021/07/08 01:27:01;;;;;;;13.80;6.25;;;;;;;18.35;67.85;101792.72;5071754;28;20094;-51
2021/07/08 01:29:29;;;;;;;10.00;6.20;;;;;;;18.35;67.69;101795.47;5050300;28;20049;-51
2021/07/08 01:31:57;;;;;;;9.98;6.13;;;;;;;18.35;67.85;101784.44;5068450;28;20036;-50
2021/07/08 01:34:25;;;;;;;12.00;6.30;;;;;;;18.38;67.74;101783.88;5050108;28;20045;-49
2021/07/08 01:36:52;;;;;;;13.80;6.85;;;;;;;18.41;67.67;101774.97;5068120;28;20040;-50
2021/07/08 01:39:20;;;;;;;10.65;6.00;;;;;;;18.42;67.57;101773.84;5071517;28;20040;-52
2021/07/08 01:41:47;;;;;;;11.93;6.10;;;;;;;18.39;67.58;101768.94;5071477;28;20048;-50
2021/07/08 01:44:15;;;;;;;11.20;5.80;;;;;;;18.34;67.86;101763.50;5070578;28;20052;-48
2021/07/08 01:46:43;;;;;;;12.35;5.95;;;;;;;18.27;68.13;101761.09;5050077;28;20051;-50
2021/07/08 01:49:11;;;;;;;11.57;5.95;;;;;;;18.25;68.33;101763.31;5070308;28;20129;-49
2021/07/08 01:51:39;;;;;;;11.13;5.60;;;;;;;18.28;68.07;101758.06;5071503;28;20048;-52
2021/07/08 01:54:10;;;;;;;12.50;6.43;;;;;;;18.33;68.00;101759.91;5071561;28;20065;-52
2021/07/08 01:56:38;;;;;;;12.15;5.82;;;;;;;18.33;67.77;101765.44;5072671;28;20060;-51
2021/07/08 01:59:06;;;;;;;15.65;6.68;;;;;;;18.30;68.02;101766.00;5074566;28;20139;-50
2021/07/08 02:01:34;;;;;;;12.07;5.60;;;;;;;18.22;68.27;101769.44;5074915;28;20135;-51
2021/07/08 02:04:01;;;;;;;9.18;5.43;;;;;;;18.22;68.45;101767.50;5074891;28;20399;-49
2021/07/08 02:06:30;;;;;;;11.27;5.45;;;;;;;18.25;68.46;101764.13;5074990;28;20526;-50
2021/07/08 02:08:57;;;;;;;11.55;5.53;;;;;;;18.28;68.25;101763.56;5053826;28;20052;-51
2021/07/08 02:11:25;;;;;;;9.50;5.68;;;;;;;18.29;68.27;101770.72;5075019;28;20048;-52
2021/07/08 02:13:52;;;;;;;9.88;5.38;;;;;;;18.34;68.00;101760.72;5075075;28;20090;-50
2021/07/08 02:16:20;;;;;;;11.02;5.45;;;;;;;18.35;68.08;101757.69;5073965;28;20522;-52
2021/07/08 02:18:48;;;;;;;8.85;5.40;;;;;;;18.39;67.89;101755.13;5074911;28;20040;-49
2021/07/08 02:21:16;;;;;;;11.15;5.22;;;;;;;18.42;67.84;101757.28;5074827;28;20048;-52
2021/07/08 02:23:43;;;;;;;8.68;5.07;;;;;;;18.42;67.78;101752.59;5075074;28;20128;-49
2021/07/08 02:26:11;;;;;;;11.20;5.43;;;;;;;18.42;67.82;101758.09;5055633;28;20442;-51
2021/07/08 02:28:41;;;;;;;12.40;5.72;;;;;;;18.41;67.63;101753.72;5074765;28;20052;-50
2021/07/08 02:31:10;;;;;;;8.93;5.32;;;;;;;18.38;67.71;101761.78;5074396;28;20045;-52
2021/07/08 02:33:38;;;;;;;13.07;6.15;;;;;;;18.30;68.15;101758.56;5074383;28;20132;-53
2021/07/08 02:36:06;;;;;;;11.25;5.82;;;;;;;18.26;68.41;101754.75;5074488;28;20056;-51
2021/07/08 02:38:34;;;;;;;9.98;5.40;;;;;;;18.25;68.61;101755.88;5074533;28;20044;-50
2021/07/08 02:41:03;;;;;;;9.80;5.97;;;;;;;18.24;68.53;101759.75;5054054;28;20045;-49
2021/07/08 02:43:31;;;;;;;11.35;5.97;;;;;;;18.19;68.85;101759.00;5074293;28;20509;-49
2021/07/08 02:45:59;;;;;;;12.25;5.57;;;;;;;18.18;68.85;101758.16;5073869;28;20040;-49
2021/07/08 02:48:27;;;;;;;7.97;5.22;;;;;;;18.19;69.00;101759.81;5074309;28;20048;-49
2021/07/08 02:50:56;;;;;;;8.07;4.93;;;;;;;18.18;68.89;101760.94;5074136;28;20502;-49
2021/07/08 02:53:24;;;;;;;11.18;6.88;;;;;;;18.21;68.78;101762.31;5066324;28;20040;-53
2021/07/08 02:55:51;;;;;;;10.93;5.47;;;;;;;18.23;68.76;101754.53;5074014;28;20372;-50
2021/07/08 02:58:19;;;;;;;10.13;6.03;;;;;;;18.25;68.84;101758.63;5074116;28;20058;-51
2021/07/08 03:00:48;;;;;;;11.52;6.43;;;;;;;18.25;68.58;101764.13;5073498;28;20048;-51
2021/07/08 03:03:16;;;;;;;10.10;5.97;;;;;;;18.24;68.75;101762.50;5074200;28;20124;-47
2021/07/08 03:05:44;;;;;;;12.10;6.47;;;;;;;18.23;68.70;101769.16;5073977;28;20056;-49
2021/07/08 03:08:12;;;;;;;10.18;6.35;;;;;;;18.20;68.97;101766.16;5073664;28;20434;-51
2021/07/08 03:10:40;;;;;;;11.18;6.70;;;;;;;18.21;68.46;101767.81;5073920;28;20041;-50
2021/07/08 03:13:08;;;;;;;8.82;5.75;;;;;;;18.22;68.18;101769.44;5073852;28;20036;-51
2021/07/08 03:15:36;;;;;;;12.85;6.50;;;;;;;18.22;68.53;101775.78;5073149;28;20495;-54
2021/07/08 03:18:05;;;;;;;10.98;6.18;;;;;;;18.20;68.54;101778.00;5073881;28;20037;-51
2021/07/08 03:20:34;;;;;;;12.98;5.97;;;;;;;18.19;68.79;101775.56;5073695;28;20090;-48
2021/07/08 03:23:03;;;;;;;10.23;5.93;;;;;;;18.17;68.90;101789.63;5073760;28;20120;-50
2021/07/08 03:25:31;;;;;;;12.85;6.85;;;;;;;18.14;68.87;101787.47;5073850;28;20491;-51
2021/07/08 03:27:59;;;;;;;11.63;6.50;;;;;;;18.10;68.94;101791.94;5073365;28;20064;-51
2021/07/08 03:30:30;;;;;;;10.63;6.82;;;;;;;18.06;69.15;101788.13;5073238;28;20059;-49
2021/07/08 03:32:58;;;;;;;12.75;7.15;;;;;;;18.02;69.44;101787.09;5073497;28;20048;-54
2021/07/08 03:35:30;;;;;;;14.18;7.80;;;;;;;17.94;69.57;101780.25;5073761;28;20060;-51
2021/07/08 03:37:58;;;;;;;14.45;7.22;;;;;;;17.91;70.00;101788.31;5073065;28;20538;-52
2021/07/08 03:40:27;;;;;;;12.48;7.07;;;;;;;17.94;69.72;101784.97;5073312;28;20045;-52
2021/07/08 03:42:55;;;;;;;11.40;7.60;;;;;;;17.97;69.77;101781.63;5051637;28;20051;-51
2021/07/08 03:45:23;;;;;;;10.85;7.10;;;;;;;18.01;69.60;101785.44;5047193;28;20067;-53
2021/07/08 03:47:52;;;;;;;10.70;6.13;;;;;;;18.07;69.53;101787.03;5073127;28;20053;-51
2021/07/08 03:50:20;;;;;;;12.32;7.10;;;;;;;18.12;69.25;101786.13;5073166;28;20502;-50
2021/07/08 03:52:49;;;;;;;13.95;7.30;;;;;;;18.12;69.25;101786.94;5073160;28;20052;-51
2021/07/08 03:55:19;;;;;;;12.00;7.88;;;;;;;18.07;69.28;101792.53;5073080;28;20070;-50
2021/07/08 03:57:52;;;;;;;14.18;7.50;;;;;;;18.01;69.65;101785.44;5072337;28;20052;-53
2021/07/08 04:00:29;;;;;;;11.00;6.38;;;;;;;17.93;69.88;101786.09;5072803;28;20036;-54
2021/07/08 04:03:04;;;;;;;13.75;6.93;;;;;;;17.96;69.78;101793.78;5073103;28;20124;-50
2021/07/08 04:05:32;;;;;;;8.75;5.32;;;;;;;17.98;69.81;101786.84;5072558;28;20047;-54
2021/07/08 04:08:00;;;;;;;11.13;6.13;;;;;;;18.02;69.77;101795.38;5073007;28;20043;-53
2021/07/08 04:10:28;;;;;;;13.40;6.95;;;;;;;18.05;69.63;101792.00;5072359;28;20044;-52
2021/07/08 04:13:00;;;;;;;11.55;7.93;;;;;;;18.06;69.73;101793.63;5072409;28;20048;-54
2021/07/08 04:15:28;;;;;;;14.10;7.93;;;;;;;18.06;69.79;101788.97;5072879;28;20045;-54
2021/07/08 04:17:56;;;;;;;13.98;8.23;;;;;;;18.06;70.04;101797.25;5074086;28;20093;-54
2021/07/08 04:20:24;;;;;;;12.23;7.43;;;;;;;18.07;70.13;101798.06;5068071;28;20060;-54
2021/07/08 04:22:52;;;;;;;13.02;8.25;;;;;;;18.08;70.07;101791.41;5077698;28;20036;-50
2021/07/08 04:25:21;;;;;;;18.50;8.63;;;;;;;18.09;70.14;101798.59;5077467;28;20492;-53
2021/07/08 04:27:48;;;;;;;16.88;8.13;;;;;;;18.07;70.22;101796.09;5075803;28;20075;-54
2021/07/08 04:30:19;;;;;;;20.42;9.23;;;;;;;18.04;70.30;101796.72;5075545;28;20056;-54
2021/07/08 04:32:47;;;;;;;18.10;8.60;;;;;;;18.05;70.47;101803.03;5052980;28;20145;-54
2021/07/08 04:35:21;;;;;;;12.85;8.85;;;;;;;18.05;70.55;101801.09;5073938;28;20056;-54
2021/07/08 04:37:49;;;;;;;14.10;8.88;;;;;;;18.06;70.78;101807.44;5072090;28;20415;-51
2021/07/08 04:40:19;;;;;;;14.45;8.80;;;;;;;18.04;70.73;101813.25;5072364;28;20048;-53
2021/07/08 04:42:47;;;;;;;21.50;10.50;;;;;;;18.04;70.92;101806.94;5072135;28;20056;-54
2021/07/08 04:45:16;;;;;;;12.63;9.13;;;;;;;18.02;71.02;101815.47;5058626;28;20411;-51
2021/07/08 04:47:44;;;;;;;15.05;9.43;;;;;;;18.04;71.00;101817.94;5072252;28;20059;-50
2021/07/08 04:50:15;;;;;;;17.75;10.80;;;;;;;18.05;71.07;101819.59;5052847;28;20377;-50
2021/07/08 04:52:44;;;;;;;14.32;9.43;;;;;;;18.06;71.05;101812.94;5071960;28;20051;-50
2021/07/08 04:55:13;;;;;;;14.25;10.13;;;;;;;18.07;70.90;101829.22;5071772;28;20043;-51
2021/07/08 04:57:41;;;;;;;24.63;10.55;;;;;;;18.08;71.03;101830.84;5071965;28;20065;-52
2021/07/08 05:00:10;;;;;;;16.63;9.80;;;;;;;18.10;71.20;101838.81;5071999;28;20045;-51
2021/07/08 05:02:42;;;;;;;14.57;10.25;;;;;;;18.11;71.16;101840.44;5071916;28;20074;-51
2021/07/08 05:05:11;;;;;;;17.55;10.45;;;;;;;18.11;71.16;101848.72;5072190;28;20040;-50
2021/07/08 05:07:39;;;;;;;13.00;10.15;;;;;;;18.10;71.48;101849.84;5072108;28;20055;-54
2021/07/08 05:10:09;;;;;;;16.73;9.15;;;;;;;18.10;71.50;101852.63;5071616;28;20052;-51
2021/07/08 05:12:36;;;;;;;14.60;10.02;;;;;;;18.10;71.88;101849.84;5071919;28;20067;-52
2021/07/08 05:15:06;;;;;;;17.20;10.75;;;;;;;18.10;71.73;101852.63;5071715;28;20048;-50
2021/07/08 05:17:33;;;;;;;15.05;10.82;;;;;;;18.08;72.07;101838.28;5071538;28;20044;-49
2021/07/08 05:20:02;;;;;;;15.55;10.75;;;;;;;18.07;72.46;101834.72;5071980;28;20136;-51
2021/07/08 05:22:35;;;;;;;25.90;12.13;;;;;;;18.08;72.34;101833.59;5071693;28;20499;-51
2021/07/08 05:25:03;;;;;;;17.65;12.45;;;;;;;18.08;72.88;101838.28;5071181;28;20391;-54
2021/07/08 05:27:33;;;;;;;17.17;12.13;;;;;;;18.04;73.18;101842.78;5071485;28;20491;-49
2021/07/08 05:30:00;;;;;;;15.55;12.20;;;;;;;18.00;73.19;101834.25;5071613;28;20453;-53
2021/07/08 05:32:28;;;;;;;17.98;12.38;;;;;;;17.98;73.36;101841.19;5075612;28;20048;-51
2021/07/08 05:34:56;;;;;;;15.93;11.57;;;;;;;18.00;73.57;101842.53;5075624;28;20045;-51
2021/07/08 05:37:24;;;;;;;17.25;11.98;;;;;;;18.02;73.52;101842.25;5075468;28;20036;-53
2021/07/08 05:39:51;;;;;;;13.95;10.30;;;;;;;18.07;73.24;101842.19;5074994;28;20048;-52
2021/07/08 05:42:19;;;;;;;17.63;12.07;;;;;;;18.12;73.22;101850.38;5075482;28;20155;-51
2021/07/08 05:44:46;;;;;;;16.25;11.43;;;;;;;18.14;73.17;101853.69;5074861;28;20049;-53
2021/07/08 05:47:15;;;;;;;18.70;12.10;;;;;;;18.07;72.98;101856.78;5075302;28;20033;-54
2021/07/08 05:49:55;;;;;;;22.67;12.77;;;;;;;18.10;73.01;101861.72;5075259;28;20037;-54
2021/07/08 05:52:23;;;;;;;16.80;12.70;;;;;;;18.15;72.88;101863.59;5066760;28;20139;-52
2021/07/08 05:54:51;;;;;;;17.13;12.50;;;;;;;18.18;72.72;101853.91;5075200;28;20041;-53
2021/07/08 05:57:18;;;;;;;16.90;12.18;;;;;;;18.21;72.67;101851.38;5075068;28;20056;-55
2021/07/08 05:59:46;;;;;;;17.60;11.25;;;;;;;18.23;72.62;101865.72;5074771;28;20557;-52
2021/07/08 06:02:14;;;;;;;17.70;12.52;;;;;;;18.24;72.67;101855.50;5055986;28;20052;-51
2021/07/08 06:04:41;;;;;;;17.35;12.20;;;;;;;18.26;72.51;101851.31;5074692;28;20460;-50
2021/07/08 06:07:09;;;;;;;19.48;12.38;;;;;;;18.31;72.21;101856.78;5074803;28;20051;-52
2021/07/08 06:09:36;;;;;;;20.10;13.13;;;;;;;18.35;71.82;101856.19;5074502;28;20040;-49
2021/07/08 06:12:04;;;;;;;16.25;12.32;;;;;;;18.34;71.93;101849.03;5071556;28;20040;-48
2021/07/08 06:14:32;;;;;;;16.80;12.43;;;;;;;18.34;71.88;101852.59;5066386;28;20072;-50
2021/07/08 06:17:01;;;;;;;18.92;12.60;;;;;;;18.36;71.75;101857.84;5053043;28;20116;-51
2021/07/08 06:19:29;;;;;;;18.13;12.57;;;;;;;18.38;71.34;101858.38;5074162;28;20063;-54
2021/07/08 06:21:56;;;;;;;12.52;9.40;;;;;;;18.43;71.37;101855.53;5073840;28;20707;-51
2021/07/08 06:24:24;;;;;;;23.05;14.65;;;;;;;18.46;71.67;101868.72;5073746;28;20044;-50
2021/07/08 06:26:51;;;;;;;19.65;14.30;;;;;;;18.44;71.20;101874.53;5074193;28;20045;-52
2021/07/08 06:29:19;;;;;;;18.42;13.10;;;;;;;18.41;71.18;101877.09;5074039;28;20048;-54
2021/07/08 06:31:46;;;;;;;19.95;13.63;;;;;;;18.41;71.53;101875.13;5074396;28;20048;-52
2021/07/08 06:34:14;;;;;;;20.05;13.63;;;;;;;18.41;71.65;101874.31;5073965;28;20068;-55
2021/07/08 06:36:42;;;;;;;21.17;13.68;;;;;;;18.45;71.95;101867.91;5072143;28;20051;-55
2021/07/08 06:39:09;;;;;;;22.52;15.23;;;;;;;18.46;71.49;101875.06;5074069;28;20040;-52
2021/07/08 06:41:37;;;;;;;20.83;14.02;;;;;;;18.45;71.29;101883.66;5073308;28;20045;-53
2021/07/08 06:44:04;;;;;;;19.15;13.55;;;;;;;18.47;71.17;101886.91;5071127;28;20407;-50
2021/07/08 06:46:32;;;;;;;19.60;14.45;;;;;;;18.49;71.03;101892.97;5073776;28;20029;-51
2021/07/08 06:49:01;;;;;;;17.75;13.43;;;;;;;18.52;70.96;101889.66;5074104;28;20123;-49
2021/07/08 06:51:29;;;;;;;21.45;14.48;;;;;;;18.55;70.49;101894.56;5073303;28;20051;-51
2021/07/08 06:53:58;;;;;;;24.67;14.15;;;;;;;18.57;70.35;101891.50;5074008;28;20036;-49
2021/07/08 06:56:25;;;;;;;19.83;14.38;;;;;;;18.59;70.85;101894.78;5073831;28;20043;-49
2021/07/08 06:58:53;;;;;;;20.77;13.18;;;;;;;18.64;71.23;101901.06;5051954;28;20048;-50
2021/07/08 07:01:20;;;;;;;19.73;14.13;;;;;;;18.66;71.78;101911.81;5072778;28;20043;-50
2021/07/08 07:03:48;;;;;;;21.15;15.30;;;;;;;18.66;72.07;101901.56;5073141;28;20127;-49
2021/07/08 07:06:15;;;;;;;21.52;15.32;;;;;;;18.66;72.31;101911.81;5073213;28;20037;-51
2021/07/08 07:08:47;;;;;;;24.02;15.55;;;;;;;18.64;72.42;101908.50;5051883;28;20064;-53
2021/07/08 07:11:15;;;;;;;20.05;15.13;;;;;;;18.65;72.37;101908.22;5072641;28;20044;-51
2021/07/08 07:13:42;;;;;;;21.77;15.10;;;;;;;18.68;71.91;101904.06;5072803;28;20052;-54
2021/07/08 07:16:10;;;;;;;19.45;16.33;;;;;;;18.71;72.03;101912.56;5073032;28;20052;-51
2021/07/08 07:18:39;;;;;;;18.15;14.63;;;;;;;18.76;71.63;101913.59;5073418;28;20532;-52
2021/07/08 07:21:11;;;;;;;20.75;15.65;;;;;;;18.78;71.29;101912.22;5072817;28;20475;-51
2021/07/08 07:23:42;;;;;;;14.32;10.93;;;;;;;18.82;70.66;101909.69;5073261;28;20039;-55
2021/07/08 07:26:11;;;;;;;21.38;13.60;;;;;;;18.85;70.29;101914.63;5054085;28;20041;-53
2021/07/08 07:28:39;;;;;;;20.05;13.55;;;;;;;18.87;69.42;101913.19;5073067;28;20376;-52
2021/07/08 07:31:07;;;;;;;22.30;11.85;;;;;;;18.88;68.30;101914.00;5053193;28;20079;-50
2021/07/08 07:33:35;;;;;;;17.65;10.75;;;;;;;18.90;67.41;101914.53;5051538;28;20045;-49
2021/07/08 07:36:03;;;;;;;21.33;11.55;;;;;;;18.91;66.90;101914.25;5070093;28;20135;-54
2021/07/08 07:38:30;;;;;;;16.67;9.82;;;;;;;18.93;67.08;101925.03;5071807;28;20044;-49
2021/07/08 07:40:58;;;;;;;16.05;9.68;;;;;;;18.95;66.34;101920.00;5073011;28;20045;-48
2021/07/08 07:43:26;;;;;;;19.50;9.82;;;;;;;18.99;66.27;101920.22;5072288;28;20384;-50
2021/07/08 07:45:53;;;;;;;22.70;11.07;;;;;;;19.03;66.26;101933.16;5072598;28;20075;-50
2021/07/08 07:48:21;;;;;;;15.63;9.07;;;;;;;19.07;65.56;101928.69;5072032;28;20502;-52
2021/07/08 07:50:48;;;;;;;18.35;10.43;;;;;;;19.11;64.67;101928.91;5071983;28;20044;-50
2021/07/08 07:53:16;;;;;;;15.45;9.25;;;;;;;19.14;64.77;101933.81;5072286;28;20037;-53
2021/07/08 07:55:44;;;;;;;20.75;10.00;;;;;;;19.19;64.50;101935.69;5050531;28;20051;-51
2021/07/08 07:58:11;;;;;;;14.15;8.15;;;;;;;19.23;64.63;101933.97;5070870;28;20067;-51
2021/07/08 08:00:39;;;;;;;18.92;9.48;;;;;;;19.27;63.93;101943.31;5072201;28;20066;-51
2021/07/08 08:03:06;;;;;;;15.55;8.13;;;;;;;19.29;63.74;101936.38;5072239;28;20051;-48
2021/07/08 08:05:39;;;;;;;21.13;9.27;;;;;;;19.32;63.66;101924.69;5071754;28;20075;-50
2021/07/08 08:10:56;;;;;;;14.25;7.25;;;;;;;19.37;63.47;101913.56;5072171;28;20038;-48
2021/07/08 08:13:24;;;;;;;21.83;8.55;;;;;;;19.40;63.97;101914.91;5073486;28;20407;-48
2021/07/08 08:15:53;;;;;;;15.70;7.53;;;;;;;19.41;63.58;101908.28;5071785;28;20498;-50
2021/07/08 08:18:25;;;;;;;18.40;8.38;;;;;;;19.44;63.94;101910.41;5062619;28;20048;-48
2021/07/08 08:20:53;;;;;;;19.92;7.53;;;;;;;19.46;63.80;101899.88;5072239;28;20132;-47
2021/07/08 08:23:21;;;;;;;11.75;7.05;;;;;;;19.49;63.33;101901.22;5072135;28;20044;-47
2021/07/08 08:25:48;;;;;;;16.45;7.32;;;;;;;19.52;63.09;101911.66;5071962;28;20037;-48
2021/07/08 08:28:16;;;;;;;13.48;7.35;;;;;;;19.56;63.01;101905.25;5053081;28;20055;-49
2021/07/08 08:30:44;;;;;;;16.38;8.10;;;;;;;19.59;62.38;101906.56;5071727;28;20053;-50
2021/07/08 08:33:12;;;;;;;15.68;6.90;;;;;;;19.62;62.61;101896.84;5071389;28;20037;-55
2021/07/08 08:35:40;;;;;;;14.75;7.43;;;;;;;19.65;62.25;101910.06;5071954;28;20048;-53
2021/07/08 08:38:08;;;;;;;15.77;6.95;;;;;;;19.67;62.24;101918.88;5071118;28;20040;-51
2021/07/08 08:40:35;;;;;;;13.07;6.70;;;;;;;19.70;62.38;101923.81;5071719;28;20041;-49
2021/07/08 08:43:03;;;;;;;12.38;6.97;;;;;;;19.74;62.51;101920.16;5070094;28;20036;-50
2021/07/08 08:45:31;;;;;;;18.10;6.57;;;;;;;19.79;62.48;101914.56;5071379;28;20047;-54
2021/07/08 08:48:04;;;;;;;16.55;7.97;;;;;;;19.83;62.14;101914.75;5071200;28;20048;-54
2021/07/08 08:50:37;;;;;;;15.32;7.13;;;;;;;19.86;62.31;101919.66;5071917;28;20033;-51
2021/07/08 08:53:06;;;;;;;18.95;7.72;;;;;;;19.92;61.76;101915.69;5071970;28;20483;-53
2021/07/08 08:55:35;;;;;;;13.43;6.70;;;;;;;20.03;61.90;101921.03;5050243;28;20055;-51
2021/07/08 08:58:04;;;;;;;16.67;7.38;;;;;;;20.03;60.83;101921.03;5067822;28;20053;-53
2021/07/08 09:00:45;;;;;;;14.70;5.85;;;;;;;20.02;61.00;101924.94;5071234;28;20053;-53
2021/07/08 09:03:15;;;;;;;14.82;6.55;;;;;;;20.04;60.42;101929.03;5070004;28;20060;-49
2021/07/08 09:05:45;;;;;;;13.35;6.40;;;;;;;20.06;60.37;101926.78;5071059;28;20122;-52
2021/07/08 09:08:30;;;;;;;16.48;6.65;;;;;;;20.06;60.59;101928.72;5063670;28;20033;-48
2021/07/08 09:11:14;;;;;;;12.63;5.38;;;;;;;20.06;60.34;101920.41;5071363;28;20044;-52
2021/07/08 09:13:54;;;;;;;12.45;6.20;;;;;;;20.05;59.44;101918.78;5072652;28;20094;-49
2021/07/08 09:16:30;;;;;;;24.25;7.90;;;;;;;20.04;59.30;101923.50;5061802;28;20080;-50
2021/07/08 09:19:11;;;;;;;12.88;5.57;;;;;;;20.05;59.47;101927.09;5071362;28;20071;-49
2021/07/08 09:21:42;;;;;;;12.15;5.70;;;;;;;20.04;59.49;101923.50;5070930;28;20154;-52
2021/07/08 09:24:19;;;;;;;16.02;5.80;;;;;;;20.04;59.24;101928.22;5071100;28;20515;-52
2021/07/08 09:26:57;;;;;;;12.93;6.07;;;;;;;20.03;59.03;101937.63;5071103;28;20043;-52
2021/07/08 09:29:38;;;;;;;13.00;5.05;;;;;;;20.05;59.40;101940.94;5071227;28;20040;-51
2021/07/08 09:32:16;;;;;;;13.02;5.93;;;;;;;20.08;59.77;101951.38;5068889;28;20044;-49
2021/07/08 09:34:57;;;;;;;12.55;4.93;;;;;;;20.10;58.62;101961.00;5071045;28;20144;-50
2021/07/08 09:37:27;;;;;;;13.35;5.20;;;;;;;20.10;58.55;101965.72;5070021;28;20041;-47
2021/07/08 09:39:57;;;;;;;9.82;5.07;;;;;;;20.09;58.48;101958.56;5071151;28;20564;-52
2021/07/08 09:42:43;;;;;;;12.57;5.07;;;;;;;20.09;58.81;101955.81;5070326;28;20127;-52
2021/07/08 09:45:12;;;;;;;9.45;5.00;;;;;;;20.05;57.87;101947.28;5067752;28;20048;-50
2021/07/08 09:47:41;;;;;;;11.05;4.75;;;;;;;20.08;58.01;101943.06;5070925;28;20075;-47
2021/07/08 09:50:14;;;;;;;10.98;5.03;;;;;;;20.17;58.08;101949.56;5071098;28;20064;-50
2021/07/08 09:52:51;;;;;;;13.05;5.50;;;;;;;20.23;57.83;101962.19;5070935;28;20044;-51
2021/07/08 09:55:20;;;;;;;10.60;4.90;;;;;;;20.31;58.08;101967.00;5052820;28;20127;-51
2021/07/08 09:57:48;;;;;;;12.23;4.80;;;;;;;20.38;56.90;101967.41;5070293;28;20057;-52
2021/07/08 10:00:20;;;;;;;11.88;5.10;;;;;;;20.41;57.28;101966.78;5070548;28;20106;-52
2021/07/08 10:02:48;;;;;;;8.85;4.68;;;;;;;20.45;56.88;101971.72;5069760;28;20044;-48
2021/07/08 10:05:17;;;;;;;8.95;5.13;;;;;;;20.51;56.44;101964.94;5081528;28;20048;-48
2021/07/08 10:07:46;;;;;;;12.98;4.65;;;;;;;20.51;56.41;101967.72;5073763;28;20040;-52
2021/07/08 10:10:15;;;;;;;13.73;4.88;;;;;;;20.51;56.72;101964.94;5052471;28;20049;-49
2021/07/08 10:12:47;;;;;;;9.50;4.57;;;;;;;20.51;57.11;101964.94;5071544;28;20052;-53
2021/07/08 10:15:15;;;;;;;12.50;5.25;;;;;;;20.53;56.38;101957.16;5069806;28;20137;-55
2021/07/08 10:17:44;;;;;;;9.13;4.63;;;;;;;20.54;56.44;101954.09;5071463;28;20513;-52
2021/07/08 10:20:14;;;;;;;10.57;4.40;;;;;;;20.57;56.62;101958.22;5074357;28;20110;-51
2021/07/08 10:22:41;;;;;;;11.30;4.70;;;;;;;20.63;56.30;101951.44;5074638;28;20419;-51
2021/07/08 10:25:11;;;;;;;7.95;3.90;;;;;;;20.69;56.73;101958.53;5074779;28;20036;-54
2021/07/08 10:27:43;;;;;;;8.07;4.25;;;;;;;20.73;55.76;101950.41;5073823;28;20060;-54
2021/07/08 10:30:12;;;;;;;10.43;4.03;;;;;;;20.70;55.78;101943.53;5055090;28;20044;-53
2021/07/08 10:32:40;;;;;;;7.90;3.80;;;;;;;20.69;56.21;101952.16;5052950;28;20045;-52
2021/07/08 10:35:08;;;;;;;8.10;4.10;;;;;;;20.67;55.65;101943.34;5054640;28;20491;-52
2021/07/08 10:37:39;;;;;;;7.95;3.97;;;;;;;20.68;55.81;101942.19;4375932;28;10000792;-52
2021/07/08 10:40:32;;;;;;;8.13;4.15;;;;;;;20.67;55.92;101952.47;5059006;28;20040;-54
2021/07/08 10:43:12;;;;;;;11.65;4.13;;;;;;;20.69;55.33;101944.66;5069749;28;20513;-52
2021/07/08 10:45:42;;;;;;;9.10;4.97;;;;;;;20.69;54.86;101936.38;5071825;28;20090;-51
2021/07/08 10:48:16;;;;;;;11.05;4.45;;;;;;;20.70;55.14;101931.63;5052075;28;20045;-50
2021/07/08 10:50:47;;;;;;;9.30;3.85;;;;;;;20.73;55.14;101929.06;5071747;28;20055;-50
2021/07/08 10:53:37;;;;;;;7.95;4.10;;;;;;;20.81;55.38;101931.09;5071761;28;20048;-51
2021/07/08 10:56:12;;;;;;;6.07;3.83;;;;;;;20.87;55.02;101934.56;5059094;28;20052;-53
2021/07/08 10:58:54;;;;;;;8.52;3.60;;;;;;;20.87;54.86;101934.56;5070987;28;20553;-50
2021/07/08 11:01:22;;;;;;;8.80;4.00;;;;;;;20.87;55.01;101922.69;5062886;28;20049;-50
2021/07/08 11:04:01;;;;;;;8.70;4.00;;;;;;;20.85;54.53;101921.06;5071466;28;20909;-49
2021/07/08 11:06:32;;;;;;;8.70;4.10;;;;;;;20.87;54.19;101920.72;5049842;28;20044;-50
2021/07/08 11:09:11;;;;;;;;;;;;;;;20.88;54.32;101925.16;5069696;28;20044;-48
2021/07/08 11:11:38;;;;;;;6.07;3.60;;;;;;;20.91;54.30;101915.41;5071323;28;19920;-48
2021/07/08 11:14:14;;;;;;;8.27;3.75;;;;;;;20.94;53.98;101920.31;5069976;28;20059;-49
2021/07/08 11:16:42;;;;;;;12.75;4.18;;;;;;;20.95;53.86;101928.31;5070651;28;20128;-50
2021/07/08 11:19:30;;;;;;;8.25;3.83;;;;;;;20.97;54.34;101928.84;5071355;28;20052;-51
2021/07/08 11:22:09;;;;;;;7.00;3.67;;;;;;;21.00;54.29;101924.63;5072341;28;20040;-49
2021/07/08 11:24:47;;;;;;;12.02;4.68;;;;;;;21.02;53.72;101925.09;5072966;28;20048;-48
2021/07/08 11:27:23;;;;;;;7.13;3.75;;;;;;;21.04;53.35;101923.66;5072418;28;20064;-51
2021/07/08 11:29:59;;;;;;;8.32;4.10;;;;;;;21.06;53.77;101926.13;5072670;28;20048;-47